This is the latest recevied weather packets stored in our database for station/object VK3VJP-13. If no packets are shown the sender has not sent any weather packets the latest 1 day(s).
| Time | Temp. | Humidity | Pressure | Rain* | Wind** | Luminosity | Snow |
|---|---|---|---|---|---|---|---|
| 1778032382 | 13.89° C | 73% | 1018.5 hPa | 0 mm | 2.24 m/s, 327° | - | - |
| 1778032082 | 13.33° C | 73% | 1018.5 hPa | 0 mm | 2.24 m/s, 338° | - | - |
| 1778031782 | 12.78° C | 76% | 1018.6 hPa | 0 mm | 2.24 m/s, 46° | - | - |
| 1778031482 | 12.78° C | 75% | 1018.7 hPa | 0 mm | 2.68 m/s, 299° | - | - |
| 1778031182 | 12.22° C | 75% | 1018.8 hPa | 0 mm | 1.79 m/s, 325° | - | - |
| 1778030882 | 12.22° C | 78% | 1018.8 hPa | 0 mm | 1.79 m/s, 0° | - | - |
| 1778030582 | 11.67° C | 78% | 1018.9 hPa | 0 mm | 1.34 m/s, 308° | - | - |
| 1778030282 | 11.67° C | 76% | 1019 hPa | 0 mm | 1.34 m/s, 348° | - | - |
| 1778029982 | 11.67° C | 77% | 1019 hPa | 0 mm | 1.79 m/s, 306° | - | - |
| 1778029682 | 11.67° C | 76% | 1019.2 hPa | 0 mm | 1.34 m/s, 332° | - | - |
| 1778029382 | 11.67° C | 77% | 1019.3 hPa | 0 mm | 1.34 m/s, 12° | - | - |
| 1778029082 | 11.67° C | 78% | 1019.2 hPa | 0 mm | 1.79 m/s, 331° | - | - |
| 1778028782 | 11.67° C | 78% | 1019.2 hPa | 0 mm | 1.79 m/s, 327° | - | - |
| 1778028482 | 11.11° C | 78% | 1019.4 hPa | 0 mm | 1.34 m/s, 315° | - | - |
| 1778028182 | 11.11° C | 79% | 1019.4 hPa | 0 mm | 1.79 m/s, 319° | - | - |
| 1778027882 | 11.11° C | 78% | 1019.4 hPa | 0 mm | 1.79 m/s, 323° | - | - |
| 1778027282 | 11.11° C | 77% | 1019.5 hPa | 0 mm | 1.34 m/s, 323° | - | - |
| 1778026982 | 11.11° C | 77% | 1019.6 hPa | 0 mm | 1.34 m/s, 321° | - | - |
| 1778026682 | 11.11° C | 78% | 1019.9 hPa | 0 mm | 1.34 m/s, 281° | - | - |
| 1778026382 | 11.11° C | 78% | 1019.8 hPa | 0 mm | 1.79 m/s, 324° | - | - |
| 1778026082 | 11.11° C | 79% | 1019.9 hPa | 0 mm | 1.79 m/s, 355° | - | - |
| 1778025782 | 11.11° C | 78% | 1019.9 hPa | 0 mm | 1.79 m/s, 326° | - | - |
| 1778025482 | 11.11° C | 78% | 1019.9 hPa | 0 mm | 1.79 m/s, 281° | - | - |
| 1778025182 | 11.11° C | 78% | 1019.9 hPa | 0 mm | 2.24 m/s, 275° | - | - |
| 1778024882 | 11.11° C | 79% | 1020 hPa | 0 mm | 1.79 m/s, 289° | - | - |
* Rain latest hour (hover to see other rain measurements)
** Current wind speed in m/s (hover to see current wind gust speed)